Terminal Aerodrome Forecast
Issued by NWS

Current Version | Previous Version | Text Only | Print | Product List | Glossary On
Versions: 1 2 3 4 5 6 7 8 9 10 11 12 13 14 15 16
000
FTUS42 KMLB 302331
TAFSUA
TAF
KSUA 302331Z 3100/3124 16007KT P6SM VCTS SCT030CB BKN120
     FM310400 17007KT P6SM VCSH SCT020 BKN050 OVC250
     FM311300 19009KT P6SM VCSH SCT030 BKN050 OVC250
      TEMPO 3114/3118 2SM TSRA BKN020CB
     FM311800 17005KT P6SM VCTS SCT020CB BKN040 OVC150=

USA.gov is the U.S. government's official web portal to all federal, state and local government web resources and services.